sensor_id;sensor_type;location;lat;lon;timestamp;P1;durP1;ratioP1;P2;durP2;ratioP2
15799;SDS011;8002;51.196;7.010;2024-01-15T00:02:17;38.03;;;18.20;;
15799;SDS011;8002;51.196;7.010;2024-01-15T00:04:45;33.53;;;18.37;;
15799;SDS011;8002;51.196;7.010;2024-01-15T00:07:11;33.30;;;20.07;;
15799;SDS011;8002;51.196;7.010;2024-01-15T00:09:37;36.77;;;19.63;;
15799;SDS011;8002;51.196;7.010;2024-01-15T00:12:04;32.87;;;18.63;;
15799;SDS011;8002;51.196;7.010;2024-01-15T00:14:31;38.47;;;20.17;;
15799;SDS011;8002;51.196;7.010;2024-01-15T00:16:57;32.47;;;17.77;;
15799;SDS011;8002;51.196;7.010;2024-01-15T00:19:23;32.90;;;18.73;;
15799;SDS011;8002;51.196;7.010;2024-01-15T00:21:51;33.07;;;19.33;;
15799;SDS011;8002;51.196;7.010;2024-01-15T00:24:18;32.50;;;19.67;;
15799;SDS011;8002;51.196;7.010;2024-01-15T00:26:44;31.67;;;16.93;;
15799;SDS011;8002;51.196;7.010;2024-01-15T00:29:10;37.13;;;21.53;;
15799;SDS011;8002;51.196;7.010;2024-01-15T00:31:37;34.33;;;21.17;;
15799;SDS011;8002;51.196;7.010;2024-01-15T00:34:03;31.93;;;20.07;;
15799;SDS011;8002;51.196;7.010;2024-01-15T00:36:29;35.53;;;20.53;;
15799;SDS011;8002;51.196;7.010;2024-01-15T00:38:57;35.67;;;20.27;;
15799;SDS011;8002;51.196;7.010;2024-01-15T00:41:24;36.67;;;20.60;;
15799;SDS011;8002;51.196;7.010;2024-01-15T00:43:52;35.73;;;20.87;;
15799;SDS011;8002;51.196;7.010;2024-01-15T00:46:19;38.77;;;21.00;;
15799;SDS011;8002;51.196;7.010;2024-01-15T00:48:45;35.83;;;20.27;;
15799;SDS011;8002;51.196;7.010;2024-01-15T00:51:12;36.77;;;20.60;;
15799;SDS011;8002;51.196;7.010;2024-01-15T00:53:38;33.53;;;20.47;;
15799;SDS011;8002;51.196;7.010;2024-01-15T00:56:06;31.07;;;19.43;;
15799;SDS011;8002;51.196;7.010;2024-01-15T00:58:32;37.53;;;21.47;;
15799;SDS011;8002;51.196;7.010;2024-01-15T01:00:58;35.07;;;20.20;;
15799;SDS011;8002;51.196;7.010;2024-01-15T01:03:25;35.17;;;21.77;;
15799;SDS011;8002;51.196;7.010;2024-01-15T01:05:51;34.03;;;21.03;;
15799;SDS011;8002;51.196;7.010;2024-01-15T01:08:17;36.93;;;20.23;;
15799;SDS011;8002;51.196;7.010;2024-01-15T01:10:44;37.33;;;20.93;;
15799;SDS011;8002;51.196;7.010;2024-01-15T01:13:11;36.40;;;22.07;;
15799;SDS011;8002;51.196;7.010;2024-01-15T01:15:38;36.87;;;21.27;;
15799;SDS011;8002;51.196;7.010;2024-01-15T01:18:04;34.70;;;21.73;;
15799;SDS011;8002;51.196;7.010;2024-01-15T01:20:31;35.50;;;19.40;;
15799;SDS011;8002;51.196;7.010;2024-01-15T01:22:57;34.57;;;19.67;;
15799;SDS011;8002;51.196;7.010;2024-01-15T01:25:24;36.77;;;20.47;;
15799;SDS011;8002;51.196;7.010;2024-01-15T01:27:51;33.90;;;19.83;;
15799;SDS011;8002;51.196;7.010;2024-01-15T01:30:18;38.90;;;20.93;;
15799;SDS011;8002;51.196;7.010;2024-01-15T01:32:45;36.33;;;20.63;;
15799;SDS011;8002;51.196;7.010;2024-01-15T01:35:12;32.53;;;19.67;;
15799;SDS011;8002;51.196;7.010;2024-01-15T01:37:38;31.00;;;19.63;;
15799;SDS011;8002;51.196;7.010;2024-01-15T01:40:05;31.27;;;18.80;;
15799;SDS011;8002;51.196;7.010;2024-01-15T01:42:31;33.20;;;20.10;;
15799;SDS011;8002;51.196;7.010;2024-01-15T01:44:58;33.13;;;20.90;;
15799;SDS011;8002;51.196;7.010;2024-01-15T01:47:25;31.17;;;19.77;;
15799;SDS011;8002;51.196;7.010;2024-01-15T01:49:52;38.17;;;20.43;;
15799;SDS011;8002;51.196;7.010;2024-01-15T01:52:19;33.10;;;19.30;;
15799;SDS011;8002;51.196;7.010;2024-01-15T01:54:45;35.47;;;21.53;;
15799;SDS011;8002;51.196;7.010;2024-01-15T01:57:11;36.03;;;20.77;;
15799;SDS011;8002;51.196;7.010;2024-01-15T01:59:38;29.87;;;20.03;;
15799;SDS011;8002;51.196;7.010;2024-01-15T02:02:04;31.40;;;18.50;;
15799;SDS011;8002;51.196;7.010;2024-01-15T02:04:32;30.10;;;18.43;;
15799;SDS011;8002;51.196;7.010;2024-01-15T02:07:00;33.20;;;19.67;;
15799;SDS011;8002;51.196;7.010;2024-01-15T02:09:26;30.70;;;18.93;;
15799;SDS011;8002;51.196;7.010;2024-01-15T02:11:53;27.83;;;17.77;;
15799;SDS011;8002;51.196;7.010;2024-01-15T02:14:19;30.97;;;19.40;;
15799;SDS011;8002;51.196;7.010;2024-01-15T02:16:46;35.43;;;19.97;;
15799;SDS011;8002;51.196;7.010;2024-01-15T02:19:14;30.53;;;18.60;;
15799;SDS011;8002;51.196;7.010;2024-01-15T02:21:42;35.20;;;20.10;;
15799;SDS011;8002;51.196;7.010;2024-01-15T02:24:10;30.83;;;20.37;;
15799;SDS011;8002;51.196;7.010;2024-01-15T02:26:36;34.07;;;20.80;;
15799;SDS011;8002;51.196;7.010;2024-01-15T02:29:03;34.23;;;20.00;;
15799;SDS011;8002;51.196;7.010;2024-01-15T02:31:30;31.40;;;19.00;;
15799;SDS011;8002;51.196;7.010;2024-01-15T02:33:56;29.47;;;19.20;;
15799;SDS011;8002;51.196;7.010;2024-01-15T02:36:22;30.23;;;18.33;;
15799;SDS011;8002;51.196;7.010;2024-01-15T02:38:48;29.40;;;19.03;;
15799;SDS011;8002;51.196;7.010;2024-01-15T02:41:16;33.87;;;18.90;;
15799;SDS011;8002;51.196;7.010;2024-01-15T02:43:42;26.43;;;17.13;;
15799;SDS011;8002;51.196;7.010;2024-01-15T02:46:09;28.57;;;16.83;;
15799;SDS011;8002;51.196;7.010;2024-01-15T02:48:35;28.03;;;17.63;;
15799;SDS011;8002;51.196;7.010;2024-01-15T02:51:01;28.33;;;17.77;;
15799;SDS011;8002;51.196;7.010;2024-01-15T02:53:28;29.30;;;17.23;;
15799;SDS011;8002;51.196;7.010;2024-01-15T02:55:54;28.43;;;16.33;;
15799;SDS011;8002;51.196;7.010;2024-01-15T02:58:22;32.53;;;17.93;;
15799;SDS011;8002;51.196;7.010;2024-01-15T03:00:48;28.77;;;17.20;;
15799;SDS011;8002;51.196;7.010;2024-01-15T03:03:14;26.97;;;16.77;;
15799;SDS011;8002;51.196;7.010;2024-01-15T03:05:41;27.80;;;16.67;;
15799;SDS011;8002;51.196;7.010;2024-01-15T03:08:07;31.70;;;17.83;;
15799;SDS011;8002;51.196;7.010;2024-01-15T03:10:33;24.90;;;16.30;;
15799;SDS011;8002;51.196;7.010;2024-01-15T03:13:00;26.37;;;16.43;;
15799;SDS011;8002;51.196;7.010;2024-01-15T03:15:27;28.00;;;15.77;;
15799;SDS011;8002;51.196;7.010;2024-01-15T03:17:54;29.03;;;17.10;;
15799;SDS011;8002;51.196;7.010;2024-01-15T03:20:20;25.33;;;15.03;;
15799;SDS011;8002;51.196;7.010;2024-01-15T03:22:46;23.07;;;14.80;;
15799;SDS011;8002;51.196;7.010;2024-01-15T03:25:13;24.47;;;15.57;;
15799;SDS011;8002;51.196;7.010;2024-01-15T03:27:39;25.97;;;15.47;;
15799;SDS011;8002;51.196;7.010;2024-01-15T03:30:05;25.43;;;15.23;;
15799;SDS011;8002;51.196;7.010;2024-01-15T03:32:33;25.27;;;15.13;;
15799;SDS011;8002;51.196;7.010;2024-01-15T03:34:59;25.60;;;15.70;;
15799;SDS011;8002;51.196;7.010;2024-01-15T03:37:25;22.77;;;14.80;;
15799;SDS011;8002;51.196;7.010;2024-01-15T03:39:52;22.77;;;15.80;;
15799;SDS011;8002;51.196;7.010;2024-01-15T03:42:20;23.63;;;14.63;;
15799;SDS011;8002;51.196;7.010;2024-01-15T03:44:46;22.63;;;15.67;;
15799;SDS011;8002;51.196;7.010;2024-01-15T03:47:12;18.33;;;14.37;;
15799;SDS011;8002;51.196;7.010;2024-01-15T03:49:40;27.40;;;15.27;;
15799;SDS011;8002;51.196;7.010;2024-01-15T03:52:07;24.07;;;14.60;;
15799;SDS011;8002;51.196;7.010;2024-01-15T03:54:33;23.40;;;15.00;;
15799;SDS011;8002;51.196;7.010;2024-01-15T03:56:59;17.93;;;14.07;;
15799;SDS011;8002;51.196;7.010;2024-01-15T03:59:26;23.67;;;14.63;;
15799;SDS011;8002;51.196;7.010;2024-01-15T04:01:53;22.67;;;14.30;;
15799;SDS011;8002;51.196;7.010;2024-01-15T04:04:20;22.97;;;13.20;;
15799;SDS011;8002;51.196;7.010;2024-01-15T04:06:47;21.30;;;14.23;;
15799;SDS011;8002;51.196;7.010;2024-01-15T04:09:14;21.50;;;14.40;;
15799;SDS011;8002;51.196;7.010;2024-01-15T04:11:40;20.17;;;12.97;;
15799;SDS011;8002;51.196;7.010;2024-01-15T04:14:06;21.40;;;13.73;;
15799;SDS011;8002;51.196;7.010;2024-01-15T04:16:33;18.37;;;12.90;;
15799;SDS011;8002;51.196;7.010;2024-01-15T04:18:59;21.53;;;13.63;;
15799;SDS011;8002;51.196;7.010;2024-01-15T04:21:25;20.03;;;13.43;;
15799;SDS011;8002;51.196;7.010;2024-01-15T04:23:53;23.77;;;15.30;;
15799;SDS011;8002;51.196;7.010;2024-01-15T04:26:19;20.67;;;14.00;;
15799;SDS011;8002;51.196;7.010;2024-01-15T04:28:45;20.30;;;13.20;;
15799;SDS011;8002;51.196;7.010;2024-01-15T04:31:20;21.17;;;13.50;;
15799;SDS011;8002;51.196;7.010;2024-01-15T04:33:46;20.60;;;13.93;;
15799;SDS011;8002;51.196;7.010;2024-01-15T04:36:12;19.03;;;11.83;;
15799;SDS011;8002;51.196;7.010;2024-01-15T04:38:39;18.43;;;13.33;;
15799;SDS011;8002;51.196;7.010;2024-01-15T04:41:06;23.90;;;12.93;;
15799;SDS011;8002;51.196;7.010;2024-01-15T04:43:35;18.50;;;12.30;;
15799;SDS011;8002;51.196;7.010;2024-01-15T04:46:02;17.43;;;12.77;;
15799;SDS011;8002;51.196;7.010;2024-01-15T04:48:30;18.30;;;13.00;;
15799;SDS011;8002;51.196;7.010;2024-01-15T04:50:56;19.60;;;14.03;;
15799;SDS011;8002;51.196;7.010;2024-01-15T04:53:22;19.07;;;12.87;;
15799;SDS011;8002;51.196;7.010;2024-01-15T04:55:49;18.30;;;12.13;;
15799;SDS011;8002;51.196;7.010;2024-01-15T04:58:16;17.83;;;13.10;;
15799;SDS011;8002;51.196;7.010;2024-01-15T05:00:42;22.63;;;12.10;;
15799;SDS011;8002;51.196;7.010;2024-01-15T05:03:09;18.60;;;11.90;;
15799;SDS011;8002;51.196;7.010;2024-01-15T05:05:35;17.50;;;11.37;;
15799;SDS011;8002;51.196;7.010;2024-01-15T05:08:01;17.53;;;11.63;;
15799;SDS011;8002;51.196;7.010;2024-01-15T05:10:28;16.60;;;11.67;;
15799;SDS011;8002;51.196;7.010;2024-01-15T05:12:54;19.07;;;11.80;;
15799;SDS011;8002;51.196;7.010;2024-01-15T05:15:22;16.63;;;11.23;;
15799;SDS011;8002;51.196;7.010;2024-01-15T05:17:48;15.00;;;11.10;;
15799;SDS011;8002;51.196;7.010;2024-01-15T05:20:14;18.57;;;11.40;;
15799;SDS011;8002;51.196;7.010;2024-01-15T05:22:41;14.50;;;10.17;;
15799;SDS011;8002;51.196;7.010;2024-01-15T05:25:07;17.73;;;11.67;;
15799;SDS011;8002;51.196;7.010;2024-01-15T05:27:33;17.40;;;11.33;;
15799;SDS011;8002;51.196;7.010;2024-01-15T05:30:00;18.73;;;11.83;;
15799;SDS011;8002;51.196;7.010;2024-01-15T05:32:27;14.20;;;11.50;;
15799;SDS011;8002;51.196;7.010;2024-01-15T05:34:53;15.63;;;10.93;;
15799;SDS011;8002;51.196;7.010;2024-01-15T05:37:19;15.87;;;10.30;;
15799;SDS011;8002;51.196;7.010;2024-01-15T05:39:45;19.20;;;10.37;;
15799;SDS011;8002;51.196;7.010;2024-01-15T05:42:12;12.93;;;9.63;;
15799;SDS011;8002;51.196;7.010;2024-01-15T05:44:38;19.63;;;10.90;;
15799;SDS011;8002;51.196;7.010;2024-01-15T05:47:04;17.67;;;11.67;;
15799;SDS011;8002;51.196;7.010;2024-01-15T05:49:32;13.93;;;10.20;;
15799;SDS011;8002;51.196;7.010;2024-01-15T05:51:58;15.87;;;11.07;;
15799;SDS011;8002;51.196;7.010;2024-01-15T05:54:25;16.10;;;9.80;;
15799;SDS011;8002;51.196;7.010;2024-01-15T05:56:51;17.07;;;10.90;;
15799;SDS011;8002;51.196;7.010;2024-01-15T05:59:17;15.57;;;10.23;;
15799;SDS011;8002;51.196;7.010;2024-01-15T06:01:43;15.60;;;10.70;;
15799;SDS011;8002;51.196;7.010;2024-01-15T06:04:10;16.03;;;9.17;;
15799;SDS011;8002;51.196;7.010;2024-01-15T06:06:37;16.90;;;10.40;;
15799;SDS011;8002;51.196;7.010;2024-01-15T06:09:04;13.73;;;10.03;;
15799;SDS011;8002;51.196;7.010;2024-01-15T06:11:31;15.87;;;9.87;;
15799;SDS011;8002;51.196;7.010;2024-01-15T06:13:58;17.10;;;10.17;;
15799;SDS011;8002;51.196;7.010;2024-01-15T06:16:25;13.90;;;9.83;;
15799;SDS011;8002;51.196;7.010;2024-01-15T06:18:51;16.00;;;9.20;;
15799;SDS011;8002;51.196;7.010;2024-01-15T06:21:18;13.90;;;9.40;;
15799;SDS011;8002;51.196;7.010;2024-01-15T06:23:45;14.47;;;9.50;;
15799;SDS011;8002;51.196;7.010;2024-01-15T06:26:12;13.27;;;8.17;;
15799;SDS011;8002;51.196;7.010;2024-01-15T06:28:38;13.37;;;8.27;;
15799;SDS011;8002;51.196;7.010;2024-01-15T06:31:05;11.40;;;8.63;;
15799;SDS011;8002;51.196;7.010;2024-01-15T06:33:32;16.70;;;9.13;;
15799;SDS011;8002;51.196;7.010;2024-01-15T06:35:58;14.70;;;9.87;;
15799;SDS011;8002;51.196;7.010;2024-01-15T06:38:25;12.70;;;9.27;;
15799;SDS011;8002;51.196;7.010;2024-01-15T06:40:52;14.17;;;8.97;;
15799;SDS011;8002;51.196;7.010;2024-01-15T06:43:21;13.70;;;8.73;;
15799;SDS011;8002;51.196;7.010;2024-01-15T06:45:48;11.83;;;8.13;;
15799;SDS011;8002;51.196;7.010;2024-01-15T06:48:14;12.73;;;7.90;;
15799;SDS011;8002;51.196;7.010;2024-01-15T06:50:41;12.37;;;9.57;;
15799;SDS011;8002;51.196;7.010;2024-01-15T06:53:07;15.27;;;8.53;;
15799;SDS011;8002;51.196;7.010;2024-01-15T06:55:34;11.90;;;8.90;;
15799;SDS011;8002;51.196;7.010;2024-01-15T06:58:01;11.13;;;8.47;;
15799;SDS011;8002;51.196;7.010;2024-01-15T07:00:28;11.17;;;8.43;;
15799;SDS011;8002;51.196;7.010;2024-01-15T07:02:55;16.77;;;8.87;;
15799;SDS011;8002;51.196;7.010;2024-01-15T07:05:21;9.43;;;7.30;;
15799;SDS011;8002;51.196;7.010;2024-01-15T07:07:48;11.23;;;7.13;;
15799;SDS011;8002;51.196;7.010;2024-01-15T07:10:14;11.87;;;7.50;;
15799;SDS011;8002;51.196;7.010;2024-01-15T07:12:41;14.03;;;7.27;;
15799;SDS011;8002;51.196;7.010;2024-01-15T07:15:10;10.83;;;7.10;;
15799;SDS011;8002;51.196;7.010;2024-01-15T07:17:36;11.03;;;7.83;;
15799;SDS011;8002;51.196;7.010;2024-01-15T07:20:04;9.83;;;7.97;;
15799;SDS011;8002;51.196;7.010;2024-01-15T07:22:32;10.43;;;8.33;;
15799;SDS011;8002;51.196;7.010;2024-01-15T07:24:59;10.80;;;8.03;;
15799;SDS011;8002;51.196;7.010;2024-01-15T07:27:25;11.27;;;8.57;;
15799;SDS011;8002;51.196;7.010;2024-01-15T07:29:51;11.63;;;8.10;;
15799;SDS011;8002;51.196;7.010;2024-01-15T07:32:19;12.17;;;8.73;;
15799;SDS011;8002;51.196;7.010;2024-01-15T07:34:46;14.57;;;11.10;;
15799;SDS011;8002;51.196;7.010;2024-01-15T07:37:12;13.20;;;10.07;;
15799;SDS011;8002;51.196;7.010;2024-01-15T07:39:39;12.13;;;9.93;;
15799;SDS011;8002;51.196;7.010;2024-01-15T07:42:05;14.93;;;10.20;;
15799;SDS011;8002;51.196;7.010;2024-01-15T07:44:32;14.93;;;12.67;;
15799;SDS011;8002;51.196;7.010;2024-01-15T07:46:58;15.73;;;11.53;;
15799;SDS011;8002;51.196;7.010;2024-01-15T07:49:26;14.70;;;11.70;;
15799;SDS011;8002;51.196;7.010;2024-01-15T07:51:53;16.17;;;11.20;;
15799;SDS011;8002;51.196;7.010;2024-01-15T07:54:19;15.90;;;12.10;;
15799;SDS011;8002;51.196;7.010;2024-01-15T07:56:55;16.87;;;11.67;;
15799;SDS011;8002;51.196;7.010;2024-01-15T07:59:22;17.00;;;11.53;;
15799;SDS011;8002;51.196;7.010;2024-01-15T08:01:48;13.47;;;10.77;;
15799;SDS011;8002;51.196;7.010;2024-01-15T08:04:15;12.80;;;10.63;;
15799;SDS011;8002;51.196;7.010;2024-01-15T08:06:42;15.00;;;11.23;;
15799;SDS011;8002;51.196;7.010;2024-01-15T08:09:08;16.40;;;11.97;;
15799;SDS011;8002;51.196;7.010;2024-01-15T08:11:35;16.17;;;11.20;;
15799;SDS011;8002;51.196;7.010;2024-01-15T08:14:01;19.13;;;12.10;;
15799;SDS011;8002;51.196;7.010;2024-01-15T08:16:28;16.10;;;12.50;;
15799;SDS011;8002;51.196;7.010;2024-01-15T08:18:54;16.37;;;12.10;;
15799;SDS011;8002;51.196;7.010;2024-01-15T08:21:21;16.77;;;12.30;;
15799;SDS011;8002;51.196;7.010;2024-01-15T08:23:49;17.37;;;12.27;;
15799;SDS011;8002;51.196;7.010;2024-01-15T08:26:15;17.40;;;12.10;;
15799;SDS011;8002;51.196;7.010;2024-01-15T08:28:41;15.87;;;11.60;;
15799;SDS011;8002;51.196;7.010;2024-01-15T08:31:08;16.63;;;12.03;;
15799;SDS011;8002;51.196;7.010;2024-01-15T08:33:34;19.53;;;12.40;;
15799;SDS011;8002;51.196;7.010;2024-01-15T08:36:01;19.47;;;13.17;;
15799;SDS011;8002;51.196;7.010;2024-01-15T08:38:27;15.70;;;13.10;;
15799;SDS011;8002;51.196;7.010;2024-01-15T08:40:55;18.17;;;13.87;;
15799;SDS011;8002;51.196;7.010;2024-01-15T08:43:24;20.20;;;13.73;;
15799;SDS011;8002;51.196;7.010;2024-01-15T08:45:50;17.97;;;13.70;;
15799;SDS011;8002;51.196;7.010;2024-01-15T08:48:16;20.00;;;14.37;;
15799;SDS011;8002;51.196;7.010;2024-01-15T08:50:43;18.10;;;13.30;;
15799;SDS011;8002;51.196;7.010;2024-01-15T08:53:11;16.23;;;12.37;;
15799;SDS011;8002;51.196;7.010;2024-01-15T08:55:37;15.07;;;12.20;;
15799;SDS011;8002;51.196;7.010;2024-01-15T08:58:05;15.37;;;12.07;;
15799;SDS011;8002;51.196;7.010;2024-01-15T09:00:31;17.67;;;11.80;;
15799;SDS011;8002;51.196;7.010;2024-01-15T09:02:57;15.57;;;11.03;;
15799;SDS011;8002;51.196;7.010;2024-01-15T09:05:24;17.30;;;12.00;;
15799;SDS011;8002;51.196;7.010;2024-01-15T09:07:50;13.40;;;11.33;;
15799;SDS011;8002;51.196;7.010;2024-01-15T09:10:17;16.03;;;12.60;;
15799;SDS011;8002;51.196;7.010;2024-01-15T09:12:43;15.63;;;10.93;;
15799;SDS011;8002;51.196;7.010;2024-01-15T09:15:11;19.33;;;12.50;;
15799;SDS011;8002;51.196;7.010;2024-01-15T09:17:37;15.23;;;11.70;;
15799;SDS011;8002;51.196;7.010;2024-01-15T09:20:04;16.33;;;12.13;;
15799;SDS011;8002;51.196;7.010;2024-01-15T09:22:30;19.87;;;13.13;;
15799;SDS011;8002;51.196;7.010;2024-01-15T09:24:57;16.67;;;13.10;;
15799;SDS011;8002;51.196;7.010;2024-01-15T09:27:24;17.30;;;12.23;;
15799;SDS011;8002;51.196;7.010;2024-01-15T09:29:51;16.80;;;12.37;;
15799;SDS011;8002;51.196;7.010;2024-01-15T09:32:18;19.33;;;13.83;;
15799;SDS011;8002;51.196;7.010;2024-01-15T09:34:45;18.77;;;12.17;;
15799;SDS011;8002;51.196;7.010;2024-01-15T09:37:12;17.47;;;12.33;;
15799;SDS011;8002;51.196;7.010;2024-01-15T09:39:38;18.30;;;12.33;;
15799;SDS011;8002;51.196;7.010;2024-01-15T09:42:04;17.23;;;12.13;;
15799;SDS011;8002;51.196;7.010;2024-01-15T09:44:31;13.87;;;11.03;;
15799;SDS011;8002;51.196;7.010;2024-01-15T09:46:57;14.80;;;11.67;;
15799;SDS011;8002;51.196;7.010;2024-01-15T09:49:26;14.17;;;11.23;;
15799;SDS011;8002;51.196;7.010;2024-01-15T09:51:52;13.67;;;11.07;;
15799;SDS011;8002;51.196;7.010;2024-01-15T09:54:19;12.53;;;10.20;;
15799;SDS011;8002;51.196;7.010;2024-01-15T09:56:46;13.13;;;10.97;;
15799;SDS011;8002;51.196;7.010;2024-01-15T09:59:13;14.97;;;11.20;;
15799;SDS011;8002;51.196;7.010;2024-01-15T10:01:40;12.20;;;10.10;;
15799;SDS011;8002;51.196;7.010;2024-01-15T10:04:08;14.83;;;10.30;;
15799;SDS011;8002;51.196;7.010;2024-01-15T10:06:35;14.67;;;10.57;;
15799;SDS011;8002;51.196;7.010;2024-01-15T10:09:03;13.03;;;11.67;;
15799;SDS011;8002;51.196;7.010;2024-01-15T10:11:29;14.53;;;11.00;;
15799;SDS011;8002;51.196;7.010;2024-01-15T10:13:56;10.30;;;8.90;;
15799;SDS011;8002;51.196;7.010;2024-01-15T10:16:23;13.10;;;10.03;;
15799;SDS011;8002;51.196;7.010;2024-01-15T10:18:49;12.37;;;10.40;;
15799;SDS011;8002;51.196;7.010;2024-01-15T10:21:16;11.00;;;9.57;;
15799;SDS011;8002;51.196;7.010;2024-01-15T10:23:43;11.90;;;9.80;;
15799;SDS011;8002;51.196;7.010;2024-01-15T10:26:10;12.10;;;9.83;;
15799;SDS011;8002;51.196;7.010;2024-01-15T10:28:37;13.40;;;10.03;;
15799;SDS011;8002;51.196;7.010;2024-01-15T10:31:03;12.03;;;9.63;;
15799;SDS011;8002;51.196;7.010;2024-01-15T10:33:30;13.67;;;10.03;;
15799;SDS011;8002;51.196;7.010;2024-01-15T10:35:57;10.90;;;8.77;;
15799;SDS011;8002;51.196;7.010;2024-01-15T10:38:24;10.83;;;8.67;;
15799;SDS011;8002;51.196;7.010;2024-01-15T10:40:52;11.27;;;8.57;;
15799;SDS011;8002;51.196;7.010;2024-01-15T10:43:18;10.37;;;8.63;;
15799;SDS011;8002;51.196;7.010;2024-01-15T10:45:45;9.03;;;7.17;;
15799;SDS011;8002;51.196;7.010;2024-01-15T10:48:11;8.43;;;6.37;;
15799;SDS011;8002;51.196;7.010;2024-01-15T10:50:38;8.57;;;7.30;;
15799;SDS011;8002;51.196;7.010;2024-01-15T10:53:04;7.43;;;6.50;;
15799;SDS011;8002;51.196;7.010;2024-01-15T10:55:30;8.10;;;6.67;;
15799;SDS011;8002;51.196;7.010;2024-01-15T10:57:59;11.23;;;7.67;;
15799;SDS011;8002;51.196;7.010;2024-01-15T11:00:25;8.27;;;7.40;;
15799;SDS011;8002;51.196;7.010;2024-01-15T11:02:52;9.60;;;7.33;;
15799;SDS011;8002;51.196;7.010;2024-01-15T11:05:20;8.53;;;7.10;;
15799;SDS011;8002;51.196;7.010;2024-01-15T11:07:47;7.37;;;6.60;;
15799;SDS011;8002;51.196;7.010;2024-01-15T11:12:55;8.37;;;6.17;;
15799;SDS011;8002;51.196;7.010;2024-01-15T11:15:22;7.37;;;6.27;;
15799;SDS011;8002;51.196;7.010;2024-01-15T11:18:00;5.90;;;5.30;;
15799;SDS011;8002;51.196;7.010;2024-01-15T11:20:28;6.20;;;5.30;;
15799;SDS011;8002;51.196;7.010;2024-01-15T11:22:56;7.77;;;5.40;;
15799;SDS011;8002;51.196;7.010;2024-01-15T11:25:24;6.80;;;5.23;;
15799;SDS011;8002;51.196;7.010;2024-01-15T11:28:00;6.17;;;4.67;;
15799;SDS011;8002;51.196;7.010;2024-01-15T11:30:27;7.33;;;4.70;;
15799;SDS011;8002;51.196;7.010;2024-01-15T11:32:53;5.80;;;4.30;;
15799;SDS011;8002;51.196;7.010;2024-01-15T11:35:20;5.23;;;3.97;;
15799;SDS011;8002;51.196;7.010;2024-01-15T11:37:58;5.13;;;3.53;;
15799;SDS011;8002;51.196;7.010;2024-01-15T11:40:39;4.57;;;3.70;;
15799;SDS011;8002;51.196;7.010;2024-01-15T11:43:07;3.87;;;3.10;;
15799;SDS011;8002;51.196;7.010;2024-01-15T11:45:35;5.17;;;3.57;;
15799;SDS011;8002;51.196;7.010;2024-01-15T11:48:14;4.20;;;2.87;;
15799;SDS011;8002;51.196;7.010;2024-01-15T11:50:42;4.93;;;2.77;;
15799;SDS011;8002;51.196;7.010;2024-01-15T11:53:13;4.10;;;2.80;;
15799;SDS011;8002;51.196;7.010;2024-01-15T11:55:40;6.20;;;2.53;;
15799;SDS011;8002;51.196;7.010;2024-01-15T11:58:10;5.90;;;3.17;;
15799;SDS011;8002;51.196;7.010;2024-01-15T12:00:40;2.87;;;2.57;;
15799;SDS011;8002;51.196;7.010;2024-01-15T12:03:08;6.10;;;2.60;;
15799;SDS011;8002;51.196;7.010;2024-01-15T12:05:36;3.63;;;2.90;;
15799;SDS011;8002;51.196;7.010;2024-01-15T12:08:03;4.63;;;3.47;;
15799;SDS011;8002;51.196;7.010;2024-01-15T12:10:32;3.93;;;3.00;;
15799;SDS011;8002;51.196;7.010;2024-01-15T12:12:59;5.53;;;3.80;;
15799;SDS011;8002;51.196;7.010;2024-01-15T12:15:27;6.83;;;3.37;;
15799;SDS011;8002;51.196;7.010;2024-01-15T12:17:55;7.40;;;4.17;;
15799;SDS011;8002;51.196;7.010;2024-01-15T12:20:22;6.13;;;3.90;;
15799;SDS011;8002;51.196;7.010;2024-01-15T12:22:49;5.03;;;3.80;;
15799;SDS011;8002;51.196;7.010;2024-01-15T12:25:15;6.53;;;4.83;;
15799;SDS011;8002;51.196;7.010;2024-01-15T12:27:42;7.03;;;4.83;;
15799;SDS011;8002;51.196;7.010;2024-01-15T12:30:10;4.90;;;4.40;;
15799;SDS011;8002;51.196;7.010;2024-01-15T12:32:37;7.23;;;4.50;;
15799;SDS011;8002;51.196;7.010;2024-01-15T12:35:05;6.60;;;4.40;;
15799;SDS011;8002;51.196;7.010;2024-01-15T12:37:31;6.60;;;4.13;;
15799;SDS011;8002;51.196;7.010;2024-01-15T12:39:58;8.27;;;4.90;;
15799;SDS011;8002;51.196;7.010;2024-01-15T12:42:25;5.67;;;5.17;;
15799;SDS011;8002;51.196;7.010;2024-01-15T12:44:51;5.93;;;5.00;;
15799;SDS011;8002;51.196;7.010;2024-01-15T12:47:17;5.97;;;4.73;;
15799;SDS011;8002;51.196;7.010;2024-01-15T12:49:46;6.30;;;4.73;;
15799;SDS011;8002;51.196;7.010;2024-01-15T12:52:14;8.90;;;4.60;;
15799;SDS011;8002;51.196;7.010;2024-01-15T12:54:40;6.37;;;4.80;;
15799;SDS011;8002;51.196;7.010;2024-01-15T12:57:07;7.23;;;5.60;;
15799;SDS011;8002;51.196;7.010;2024-01-15T12:59:33;7.30;;;6.03;;
15799;SDS011;8002;51.196;7.010;2024-01-15T13:01:59;9.57;;;6.80;;
15799;SDS011;8002;51.196;7.010;2024-01-15T13:04:26;8.57;;;6.60;;
15799;SDS011;8002;51.196;7.010;2024-01-15T13:06:53;7.63;;;6.63;;
15799;SDS011;8002;51.196;7.010;2024-01-15T13:09:20;9.57;;;7.27;;
15799;SDS011;8002;51.196;7.010;2024-01-15T13:11:46;10.63;;;8.07;;
15799;SDS011;8002;51.196;7.010;2024-01-15T13:14:13;8.50;;;7.47;;
15799;SDS011;8002;51.196;7.010;2024-01-15T13:16:39;7.93;;;7.13;;
15799;SDS011;8002;51.196;7.010;2024-01-15T13:19:06;9.97;;;7.80;;
15799;SDS011;8002;51.196;7.010;2024-01-15T13:21:33;11.27;;;8.90;;
15799;SDS011;8002;51.196;7.010;2024-01-15T13:23:59;9.43;;;7.90;;
15799;SDS011;8002;51.196;7.010;2024-01-15T13:26:27;8.63;;;7.57;;
15799;SDS011;8002;51.196;7.010;2024-01-15T13:28:53;8.83;;;7.93;;
15799;SDS011;8002;51.196;7.010;2024-01-15T13:31:19;7.93;;;6.90;;
15799;SDS011;8002;51.196;7.010;2024-01-15T13:33:48;7.63;;;6.20;;
15799;SDS011;8002;51.196;7.010;2024-01-15T13:36:22;12.07;;;7.87;;
15799;SDS011;8002;51.196;7.010;2024-01-15T13:38:48;7.00;;;6.30;;
15799;SDS011;8002;51.196;7.010;2024-01-15T13:41:14;7.47;;;6.77;;
15799;SDS011;8002;51.196;7.010;2024-01-15T13:43:42;6.47;;;5.87;;
15799;SDS011;8002;51.196;7.010;2024-01-15T13:46:08;6.27;;;5.63;;
15799;SDS011;8002;51.196;7.010;2024-01-15T13:48:35;11.13;;;6.40;;
15799;SDS011;8002;51.196;7.010;2024-01-15T13:51:02;6.37;;;5.30;;
15799;SDS011;8002;51.196;7.010;2024-01-15T13:53:28;5.87;;;5.00;;
15799;SDS011;8002;51.196;7.010;2024-01-15T13:55:55;11.53;;;5.13;;
15799;SDS011;8002;51.196;7.010;2024-01-15T13:58:21;6.57;;;4.77;;
15799;SDS011;8002;51.196;7.010;2024-01-15T14:00:49;5.67;;;5.17;;
15799;SDS011;8002;51.196;7.010;2024-01-15T14:03:15;6.30;;;5.07;;
15799;SDS011;8002;51.196;7.010;2024-01-15T14:05:41;6.63;;;4.23;;
15799;SDS011;8002;51.196;7.010;2024-01-15T14:08:08;5.13;;;4.07;;
15799;SDS011;8002;51.196;7.010;2024-01-15T14:10:34;6.07;;;4.00;;
15799;SDS011;8002;51.196;7.010;2024-01-15T14:13:00;4.63;;;3.30;;
15799;SDS011;8002;51.196;7.010;2024-01-15T14:15:27;3.63;;;3.33;;
15799;SDS011;8002;51.196;7.010;2024-01-15T14:17:54;4.13;;;3.40;;
15799;SDS011;8002;51.196;7.010;2024-01-15T14:20:21;4.47;;;2.80;;
15799;SDS011;8002;51.196;7.010;2024-01-15T14:22:47;3.87;;;3.10;;
15799;SDS011;8002;51.196;7.010;2024-01-15T14:25:13;3.03;;;2.73;;
15799;SDS011;8002;51.196;7.010;2024-01-15T14:27:40;3.03;;;2.73;;
15799;SDS011;8002;51.196;7.010;2024-01-15T14:30:06;2.83;;;2.60;;
15799;SDS011;8002;51.196;7.010;2024-01-15T14:32:33;4.00;;;2.73;;
15799;SDS011;8002;51.196;7.010;2024-01-15T14:35:01;3.87;;;3.20;;
15799;SDS011;8002;51.196;7.010;2024-01-15T14:37:28;3.87;;;2.57;;
15799;SDS011;8002;51.196;7.010;2024-01-15T14:39:55;2.63;;;2.43;;
15799;SDS011;8002;51.196;7.010;2024-01-15T14:42:21;4.10;;;2.97;;
15799;SDS011;8002;51.196;7.010;2024-01-15T14:44:48;3.27;;;2.60;;